Time;durP1;ratioP1;P1;durP2;ratioP2;P2;SDS_P1;SDS_P2;PMS_P1;PMS_P2;Temp;Humidity;BMP_temperature;BMP_pressure;BME280_temperature;BME280_humidity;BME280_pressure;Samples;Min_cycle;Max_cycle;Signal;HPM_P1;HPM_P2
2022/11/07 00:01:28;;;;;;;6.93;3.40;;;;;;;9.86;99.77;100692.59;5099601;28;20012;-85
2022/11/07 00:03:54;;;;;;;10.27;3.22;;;;;;;9.81;99.86;100685.84;5113288;28;20043;-83
2022/11/07 00:06:19;;;;;;;7.03;3.22;;;;;;;9.81;99.82;100677.06;5116184;28;20024;-83
2022/11/07 00:08:45;;;;;;;8.32;3.30;;;;;;;9.86;99.46;100703.22;5117923;28;20024;-84
2022/11/07 00:11:10;;;;;;;5.50;2.72;;;;;;;9.81;99.66;100690.31;5103292;28;20066;-85
2022/11/07 00:13:38;;;;;;;9.75;3.15;;;;;;;9.80;99.83;100707.19;5100019;28;20080;-85
2022/11/07 00:16:06;;;;;;;7.68;3.13;;;;;;;9.77;99.70;100705.59;5100118;28;20047;-86
2022/11/07 00:18:32;;;;;;;8.93;3.20;;;;;;;9.76;99.96;100701.28;5118516;28;20031;-86
2022/11/07 00:21:05;;;;;;;7.93;3.08;;;;;;;9.72;99.98;100709.56;5097071;28;20070;-86
2022/11/07 00:23:30;;;;;;;5.30;3.10;;;;;;;9.70;99.53;100712.34;5114195;28;20035;-86
2022/11/07 00:26:07;;;;;;;8.48;2.90;;;;;;;9.65;99.97;100711.84;5103964;28;20025;-86
2022/11/07 00:28:34;;;;;;;8.45;3.17;;;;;;;9.66;100.00;100702.06;5108065;28;20047;-86
2022/11/07 00:30:59;;;;;;;9.35;3.10;;;;;;;9.60;100.00;100704.22;5101508;28;20046;-86
2022/11/07 00:33:25;;;;;;;10.85;3.33;;;;;;;9.63;100.00;100708.47;5106267;28;20096;-86
2022/11/07 00:35:50;;;;;;;7.57;3.03;;;;;;;9.65;100.00;100708.34;5100793;28;20020;-86
2022/11/07 00:38:15;;;;;;;7.95;2.92;;;;;;;9.63;100.00;100713.78;5117510;28;20028;-86
2022/11/07 00:40:41;;;;;;;9.35;3.20;;;;;;;9.61;100.00;100710.38;5118098;28;20039;-86
2022/11/07 00:43:06;;;;;;;7.65;3.30;;;;;;;9.61;100.00;100707.75;5089061;28;20044;-84
2022/11/07 00:45:31;;;;;;;10.77;3.50;;;;;;;9.58;100.00;100714.09;5117905;28;20032;-86
2022/11/07 00:47:57;;;;;;;10.80;3.10;;;;;;;9.58;100.00;100716.75;5104962;28;20028;-85
2022/11/07 00:50:22;;;;;;;8.10;3.05;;;;;;;9.54;100.00;100723.25;5117897;28;20059;-86
2022/11/07 00:52:47;;;;;;;12.05;3.00;;;;;;;9.54;100.00;100725.91;5103685;28;20068;-86
2022/11/07 00:55:12;;;;;;;9.20;3.10;;;;;;;9.51;100.00;100723.47;5110331;28;20084;-85
2022/11/07 00:57:38;;;;;;;7.60;3.08;;;;;;;9.52;100.00;100724.31;5113349;28;20053;-86
2022/11/07 01:00:04;;;;;;;4.68;2.70;;;;;;;9.52;100.00;100734.94;5121388;28;20020;-86
2022/11/07 01:02:29;;;;;;;8.45;2.80;;;;;;;9.51;100.00;100735.88;5116091;28;20027;-86
2022/11/07 01:05:11;;;;;;;8.73;3.15;;;;;;;9.50;100.00;100727.09;5119255;28;20046;-85
2022/11/07 01:07:38;;;;;;;10.95;3.05;;;;;;;9.50;100.00;100737.69;5117531;28;20012;-86
2022/11/07 01:10:05;;;;;;;8.85;2.88;;;;;;;9.48;100.00;100722.88;5121918;28;20049;-86
2022/11/07 01:12:35;;;;;;;9.02;3.08;;;;;;;9.48;100.00;100725.53;5113710;28;20046;-86
2022/11/07 01:15:01;;;;;;;;;;;;;;;9.55;100.00;100742.66;5121824;28;20016;-87
2022/11/07 01:17:26;;;;;;;10.88;3.22;;;;;;;9.49;100.00;100737.78;5114419;28;19963;-86
2022/11/07 01:19:51;;;;;;;9.30;3.33;;;;;;;9.53;100.00;100744.59;5108023;28;20013;-86
2022/11/07 01:22:16;;;;;;;10.25;3.17;;;;;;;9.54;100.00;100754.22;5119637;28;20032;-86
2022/11/07 01:24:42;;;;;;;10.63;3.30;;;;;;;9.53;100.00;100755.19;5120311;28;20049;-86
2022/11/07 01:27:07;;;;;;;9.73;3.25;;;;;;;9.51;100.00;100754.44;5105174;28;20012;-86
2022/11/07 01:29:32;;;;;;;8.93;2.95;;;;;;;9.53;100.00;100758.69;5120150;28;20107;-86
2022/11/07 01:31:58;;;;;;;7.88;3.03;;;;;;;9.53;100.00;100753.38;5118962;28;20020;-87
2022/11/07 01:34:23;;;;;;;10.95;3.13;;;;;;;9.51;100.00;100765.91;5121660;28;20024;-87
2022/11/07 01:36:48;;;;;;;13.00;3.63;;;;;;;9.46;100.00;100752.16;5121527;28;20021;-86
2022/11/07 01:39:14;;;;;;;11.40;3.28;;;;;;;9.49;100.00;100756.34;5120291;28;20016;-85
2022/11/07 01:41:39;;;;;;;9.63;3.78;;;;;;;9.53;100.00;100756.03;5113462;28;20020;-86
2022/11/07 01:44:07;;;;;;;8.25;3.58;;;;;;;9.55;100.00;100759.41;5106501;28;20076;-86
2022/11/07 01:46:56;;;;;;;12.80;3.47;;;;;;;9.55;100.00;100746.16;5112122;28;20036;-86
2022/11/07 01:49:51;;;;;;;12.45;3.67;;;;;;;9.60;100.00;100756.41;5153218;22;20052;-83
2022/11/07 01:52:21;;;;;;;11.13;3.15;;;;;;;9.59;100.00;100767.97;5092694;28;20379;-83
2022/11/07 01:55:03;;;;;;;10.38;3.55;;;;;;;9.55;100.00;100756.75;5120042;28;20056;-82
2022/11/07 01:57:34;;;;;;;8.75;3.38;;;;;;;9.57;100.00;100754.00;5112613;28;20024;-83
2022/11/07 02:00:03;;;;;;;9.70;3.53;;;;;;;9.58;100.00;100759.19;5124286;28;20038;-83
2022/11/07 02:02:32;;;;;;;12.85;3.35;;;;;;;9.64;100.00;100773.78;5124536;28;20020;-82
2022/11/07 02:04:59;;;;;;;13.52;3.50;;;;;;;9.65;100.00;100777.31;5110463;28;20023;-83
2022/11/07 02:07:25;;;;;;;7.53;3.30;;;;;;;9.62;100.00;100773.06;5122949;27;20051;-83
2022/11/07 02:09:52;;;;;;;8.27;2.97;;;;;;;9.66;100.00;100768.38;5117132;28;20042;-83
2022/11/07 02:12:19;;;;;;;8.00;3.70;;;;;;;9.64;100.00;100771.13;5102997;28;20020;-83
2022/11/07 02:14:44;;;;;;;9.02;3.20;;;;;;;9.65;100.00;100769.34;5111555;28;20046;-83
2022/11/07 02:17:11;;;;;;;7.40;3.22;;;;;;;9.62;100.00;100770.41;5116260;28;20548;-83
2022/11/07 02:19:41;;;;;;;12.07;3.28;;;;;;;9.65;100.00;100770.19;5116912;28;20032;-83
2022/11/07 02:22:36;;;;;;;14.20;3.67;;;;;;;9.67;100.00;100770.06;5124998;28;20035;-83
2022/11/07 02:25:07;;;;;;;10.68;3.25;;;;;;;9.67;100.00;100768.25;5117179;28;20027;-83
2022/11/07 02:27:33;;;;;;;12.55;3.05;;;;;;;9.69;100.00;100773.44;5116261;28;20019;-83
2022/11/07 02:30:06;;;;;;;11.73;3.70;;;;;;;9.66;100.00;100763.06;5116371;28;20036;-83
2022/11/07 02:32:31;;;;;;;12.88;3.13;;;;;;;9.66;100.00;100773.66;5125110;28;20108;-83
2022/11/07 02:34:59;;;;;;;10.50;3.45;;;;;;;9.66;100.00;100768.38;5124696;28;20401;-83
2022/11/07 02:37:33;;;;;;;12.35;3.33;;;;;;;9.65;100.00;100762.22;5109579;28;20382;-83
2022/11/07 02:40:01;;;;;;;9.27;3.15;;;;;;;9.68;100.00;100775.25;5124377;28;20490;-83
2022/11/07 02:42:42;;;;;;;10.13;3.85;;;;;;;9.69;100.00;100768.13;5106619;27;20091;-83
2022/11/07 02:45:17;;;;;;;14.63;3.63;;;;;;;9.68;100.00;100764.66;5116993;28;20463;-83
2022/11/07 02:47:45;;;;;;;10.57;3.30;;;;;;;9.68;100.00;100763.81;5095599;28;20023;-84
2022/11/07 02:50:13;;;;;;;11.57;3.00;;;;;;;9.69;100.00;100768.13;5123677;28;20300;-83
2022/11/07 02:52:38;;;;;;;12.82;3.40;;;;;;;9.70;100.00;100781.28;5112720;28;20503;-83
2022/11/07 02:55:05;;;;;;;11.43;3.20;;;;;;;9.69;100.00;100763.72;5107117;28;20081;-83
2022/11/07 02:57:30;;;;;;;11.38;3.58;;;;;;;9.68;100.00;100763.81;5118318;28;20032;-83
2022/11/07 02:59:56;;;;;;;13.73;3.50;;;;;;;9.68;100.00;100764.66;5114506;28;20492;-83
2022/11/07 03:02:22;;;;;;;14.55;3.80;;;;;;;9.68;100.00;100755.84;5125440;28;20118;-83
2022/11/07 03:04:47;;;;;;;13.73;3.47;;;;;;;9.68;100.00;100755.84;5122299;28;20059;-83
2022/11/07 03:07:13;;;;;;;16.13;3.50;;;;;;;9.67;100.00;100760.28;5106717;28;20032;-83
2022/11/07 03:09:38;;;;;;;12.52;3.20;;;;;;;9.65;100.00;100758.72;5121138;28;20039;-83
2022/11/07 03:12:04;;;;;;;7.80;3.30;;;;;;;9.63;100.00;100758.84;5124448;28;20054;-83
2022/11/07 03:14:29;;;;;;;10.70;3.47;;;;;;;9.61;100.00;100752.81;5122300;28;20036;-83
2022/11/07 03:16:54;;;;;;;13.40;3.63;;;;;;;9.59;100.00;100760.00;5094614;28;20027;-83
2022/11/07 03:19:19;;;;;;;14.05;3.63;;;;;;;9.60;100.00;100764.38;5120249;27;20516;-82
2022/11/07 03:21:45;;;;;;;11.68;3.30;;;;;;;9.60;100.00;100769.69;5115428;28;20118;-83
2022/11/07 03:24:10;;;;;;;9.98;3.47;;;;;;;9.59;100.00;100766.19;5112758;28;20028;-83
2022/11/07 03:26:38;;;;;;;13.88;3.85;;;;;;;9.60;100.00;100764.38;5118757;28;20063;-83
2022/11/07 03:29:05;;;;;;;12.90;3.35;;;;;;;9.59;100.00;100763.53;5129639;28;20062;-83
2022/11/07 03:31:30;;;;;;;10.35;3.15;;;;;;;9.60;100.00;100761.72;5116982;28;20053;-84
2022/11/07 03:33:56;;;;;;;11.52;3.20;;;;;;;9.60;100.00;100759.06;5115913;28;20028;-83
2022/11/07 03:36:22;;;;;;;9.50;3.08;;;;;;;9.61;100.00;100758.97;5109042;28;20066;-83
2022/11/07 03:38:47;;;;;;;14.88;3.22;;;;;;;9.64;100.00;100763.16;5117439;28;20032;-84
2022/11/07 03:41:18;;;;;;;13.88;3.83;;;;;;;9.63;100.00;100767.63;5101853;27;20057;-83
2022/11/07 03:43:44;;;;;;;14.82;3.60;;;;;;;9.66;100.00;100778.97;5108493;28;20023;-83
2022/11/07 03:46:14;;;;;;;15.57;3.50;;;;;;;9.66;100.00;100769.22;5123246;28;20024;-83
2022/11/07 03:48:40;;;;;;;11.55;3.33;;;;;;;9.66;100.00;100763.06;5104493;28;20028;-84
2022/11/07 03:51:10;;;;;;;12.95;3.30;;;;;;;9.68;100.00;100763.81;5114722;28;20024;-84
2022/11/07 03:53:37;;;;;;;16.27;3.03;;;;;;;9.70;100.00;100765.38;5109809;28;20083;-84
2022/11/07 03:56:11;;;;;;;13.23;4.10;;;;;;;9.69;100.00;100761.06;5109959;28;20044;-84
2022/11/07 03:58:37;;;;;;;14.18;3.53;;;;;;;9.70;100.00;100760.06;5113545;28;20050;-84
2022/11/07 04:01:04;;;;;;;12.90;3.53;;;;;;;9.72;100.00;100766.09;5109612;28;20011;-84
2022/11/07 04:03:29;;;;;;;11.93;3.35;;;;;;;9.71;100.00;100751.16;5105954;28;20370;-83
2022/11/07 04:05:55;;;;;;;11.70;3.03;;;;;;;9.76;100.00;100764.94;5096478;28;20114;-84
2022/11/07 04:08:21;;;;;;;18.95;3.50;;;;;;;9.74;100.00;100752.72;5108407;28;20059;-84
2022/11/07 04:10:46;;;;;;;14.70;3.10;;;;;;;9.77;100.00;100765.75;5126599;28;20130;-84
2022/11/07 04:17:17;;;;;;;19.23;3.85;;;;;;;9.76;100.00;100764.94;5118745;28;20050;-85
2022/11/07 04:18:53;;;;;;;14.77;3.35;;;;;;;9.76;100.00;100759.63;5127888;28;20042;-84
2022/11/07 04:21:19;;;;;;;14.95;3.15;;;;;;;9.81;100.00;100767.25;5112415;28;20012;-84
2022/11/07 04:23:44;;;;;;;18.30;3.88;;;;;;;9.75;100.00;100757.09;5103216;28;20032;-84
2022/11/07 04:28:54;;;;;;;16.75;3.00;;;;;;;9.73;100.00;100757.19;5109201;28;20097;-85
2022/11/07 04:31:19;;;;;;;15.15;2.90;;;;;;;9.82;100.00;100768.91;5111036;28;20027;-84
2022/11/07 04:33:44;;;;;;;14.70;3.35;;;;;;;9.77;100.00;100774.56;5103438;28;20026;-84
2022/11/07 04:36:10;;;;;;;9.40;2.67;;;;;;;9.80;100.00;100782.28;5126061;28;20035;-84
2022/11/07 04:38:35;;;;;;;16.30;3.90;;;;;;;9.81;100.00;100783.16;5109619;28;20091;-85
2022/11/07 04:41:03;;;;;;;11.05;3.15;;;;;;;9.78;100.00;100778.09;5117697;28;20028;-83
2022/11/07 04:43:28;;;;;;;14.35;3.25;;;;;;;9.81;100.00;100777.84;5109749;28;20050;-84
2022/11/07 04:45:54;;;;;;;13.52;3.40;;;;;;;9.77;100.00;100765.75;5103809;28;20032;-84
2022/11/07 04:48:19;;;;;;;15.65;3.63;;;;;;;9.79;100.00;100777.09;5122749;28;20030;-84
2022/11/07 04:50:45;;;;;;;15.10;3.65;;;;;;;9.83;100.00;100781.22;5090308;28;20040;-84
2022/11/07 04:53:12;;;;;;;16.20;3.53;;;;;;;9.83;100.00;100781.22;5087141;28;20031;-84
2022/11/07 04:55:38;;;;;;;14.25;3.03;;;;;;;9.80;100.00;100770.84;5078602;28;20016;-83
2022/11/07 04:58:03;;;;;;;15.02;3.20;;;;;;;9.85;100.00;100786.44;5105866;28;20035;-85
2022/11/07 05:00:28;;;;;;;15.57;3.50;;;;;;;9.84;100.00;100779.41;5105287;28;20459;-84
2022/11/07 05:02:54;;;;;;;12.82;3.38;;;;;;;9.87;100.00;100774.72;5087580;28;20035;-84
2022/11/07 05:05:19;;;;;;;17.88;3.70;;;;;;;9.87;100.00;100768.59;5089135;28;20000;-83
2022/11/07 05:07:45;;;;;;;17.60;3.28;;;;;;;9.87;100.00;100785.34;5089537;28;20032;-83
2022/11/07 05:10:20;;;;;;;15.90;3.17;;;;;;;9.90;100.00;100785.13;5082132;28;20028;-84
2022/11/07 05:12:46;;;;;;;17.67;3.70;;;;;;;9.87;100.00;100777.38;5081406;28;20498;-84
2022/11/07 05:15:12;;;;;;;18.63;3.97;;;;;;;9.89;100.00;100786.09;5084701;28;20036;-83
2022/11/07 05:17:38;;;;;;;16.13;3.30;;;;;;;9.89;100.00;100786.09;5090406;28;20035;-85
2022/11/07 05:20:03;;;;;;;14.27;3.50;;;;;;;9.92;100.00;100791.16;5090888;28;20040;-84
2022/11/07 05:25:13;;;;;;;16.83;3.20;;;;;;;9.93;100.00;100790.19;5099277;28;20044;-84
2022/11/07 05:27:39;;;;;;;15.80;2.95;;;;;;;9.93;100.00;100792.00;5108286;28;20040;-84
2022/11/07 05:30:05;;;;;;;15.10;3.13;;;;;;;9.89;100.00;100791.41;5098124;28;20118;-84
2022/11/07 05:32:33;;;;;;;13.30;3.28;;;;;;;9.91;100.00;100788.59;5087464;28;20028;-84
2022/11/07 05:34:58;;;;;;;14.57;3.28;;;;;;;9.97;100.00;100796.94;5094954;28;20031;-84
2022/11/07 05:37:24;;;;;;;13.35;3.22;;;;;;;9.98;100.00;100793.34;5092251;28;20454;-84
2022/11/07 05:39:49;;;;;;;23.48;3.50;;;;;;;10.00;100.00;100798.53;5077091;28;20027;-84
2022/11/07 05:42:15;;;;;;;17.60;3.53;;;;;;;10.00;100.00;100799.38;5084149;28;20115;-85
2022/11/07 05:44:40;;;;;;;16.17;3.35;;;;;;;10.02;100.00;100790.47;5102111;28;20058;-84
2022/11/07 05:47:05;;;;;;;14.00;3.47;;;;;;;10.00;100.00;100793.22;5084231;28;20031;-84
2022/11/07 05:49:31;;;;;;;11.80;2.97;;;;;;;10.02;100.00;100785.16;5092432;28;20075;-84
2022/11/07 05:51:56;;;;;;;16.00;3.38;;;;;;;10.05;100.00;100784.94;5092940;28;20028;-85
2022/11/07 05:54:23;;;;;;;18.27;3.55;;;;;;;10.08;100.00;100792.66;5106918;28;20052;-85
2022/11/07 05:56:49;;;;;;;19.08;3.67;;;;;;;10.09;100.00;100803.16;5113438;28;20034;-84
2022/11/07 05:59:17;;;;;;;15.05;3.55;;;;;;;10.10;100.00;100794.22;5103384;28;20441;-84
2022/11/07 06:01:42;;;;;;;15.48;3.33;;;;;;;10.11;100.00;100781.81;5093201;28;20041;-85
2022/11/07 06:04:08;;;;;;;16.30;3.58;;;;;;;10.11;100.00;100790.63;5084610;28;20039;-84
2022/11/07 06:06:33;;;;;;;15.85;3.97;;;;;;;10.08;100.00;100780.22;5111120;28;20031;-85
2022/11/07 06:08:59;;;;;;;12.70;3.25;;;;;;;10.12;100.00;100786.16;5095862;28;20032;-84
2022/11/07 06:11:24;;;;;;;15.52;3.00;;;;;;;10.13;100.00;100791.34;5108759;28;20028;-85
2022/11/07 06:13:51;;;;;;;16.42;3.53;;;;;;;10.10;100.00;100780.97;5091663;28;20039;-84
2022/11/07 06:16:17;;;;;;;17.27;3.20;;;;;;;10.12;100.00;100779.03;5092875;28;20032;-83
2022/11/07 06:18:42;;;;;;;17.58;3.78;;;;;;;10.12;100.00;100783.50;5085658;28;20031;-84
2022/11/07 06:21:08;;;;;;;15.70;3.58;;;;;;;10.20;100.00;100789.06;5080594;28;20078;-84
2022/11/07 06:23:33;;;;;;;16.88;3.15;;;;;;;10.19;100.00;100796.19;5081213;28;20025;-84
2022/11/07 06:25:58;;;;;;;22.35;3.75;;;;;;;10.21;100.00;100792.56;5084281;28;20410;-85
2022/11/07 06:28:24;;;;;;;13.25;3.33;;;;;;;10.19;100.00;100798.84;5085611;28;20108;-84
2022/11/07 06:30:50;;;;;;;19.67;3.30;;;;;;;10.16;100.00;100785.81;5075807;28;20044;-84
2022/11/07 06:33:17;;;;;;;15.50;2.85;;;;;;;10.22;100.00;100796.91;5100104;28;20028;-84
2022/11/07 06:35:44;;;;;;;13.77;2.90;;;;;;;10.21;100.00;100797.88;5091122;28;20081;-85
2022/11/07 06:38:11;;;;;;;16.95;4.22;;;;;;;10.26;100.00;100807.19;5095538;28;20029;-84
2022/11/07 06:40:38;;;;;;;12.88;3.45;;;;;;;10.31;100.00;100809.50;5089879;28;20020;-84
2022/11/07 06:43:17;;;;;;;14.45;3.50;;;;;;;10.29;100.00;100800.78;5082152;28;20068;-83
2022/11/07 06:45:44;;;;;;;14.02;3.10;;;;;;;10.34;100.00;100811.94;5092128;28;20032;-84
2022/11/07 06:48:11;;;;;;;13.57;3.15;;;;;;;10.30;100.00;100803.34;5108921;28;20052;-83
2022/11/07 06:50:37;;;;;;;18.15;3.63;;;;;;;10.33;100.00;100804.97;5107911;28;20107;-84
2022/11/07 06:53:07;;;;;;;16.73;3.58;;;;;;;10.38;100.00;100818.72;5100363;28;20032;-85
2022/11/07 06:55:39;;;;;;;16.15;3.53;;;;;;;10.35;100.00;100819.78;5104461;28;20040;-85
2022/11/07 06:58:05;;;;;;;17.25;3.47;;;;;;;10.39;100.00;100830.19;5112210;28;20048;-84
2022/11/07 07:00:32;;;;;;;19.20;4.43;;;;;;;10.38;100.00;100828.50;5098505;28;20024;-85
2022/11/07 07:03:03;;;;;;;16.45;3.30;;;;;;;10.36;100.00;100820.66;5121225;28;20036;-84
2022/11/07 07:05:30;;;;;;;18.85;4.05;;;;;;;10.40;100.00;100821.25;5102623;28;20024;-84
2022/11/07 07:07:59;;;;;;;14.05;3.45;;;;;;;10.46;100.00;100832.25;5122299;28;20031;-84
2022/11/07 07:10:24;;;;;;;18.95;3.63;;;;;;;10.43;100.00;100829.00;5125561;28;20474;-85
2022/11/07 07:12:53;;;;;;;15.50;3.40;;;;;;;10.47;100.00;100833.94;5124245;28;20061;-84
2022/11/07 07:15:19;;;;;;;15.85;3.50;;;;;;;10.50;100.00;100841.66;5106468;28;20047;-84
2022/11/07 07:17:48;;;;;;;16.40;3.38;;;;;;;10.54;100.00;100843.16;5087201;28;20406;-85
2022/11/07 07:20:17;;;;;;;14.00;3.13;;;;;;;10.56;100.00;100848.34;5084927;28;20107;-85
2022/11/07 07:22:45;;;;;;;16.48;3.50;;;;;;;10.54;100.00;100843.16;5097593;28;20015;-84
2022/11/07 07:25:14;;;;;;;17.58;3.30;;;;;;;10.57;100.00;100846.53;5119024;28;20031;-83
2022/11/07 07:27:39;;;;;;;12.07;3.15;;;;;;;10.60;100.00;100852.44;5090136;28;20093;-84
2022/11/07 07:30:09;;;;;;;19.73;3.78;;;;;;;10.62;100.00;100853.16;5095376;28;20031;-83
2022/11/07 07:32:35;;;;;;;18.80;3.30;;;;;;;10.65;100.00;100857.41;5095966;27;20115;-83
2022/11/07 07:35:04;;;;;;;15.88;2.90;;;;;;;10.67;100.00;100858.13;5096891;28;20043;-84
2022/11/07 07:37:29;;;;;;;;;;;;;;;10.71;100.00;100862.25;5117037;28;20585;-86
2022/11/07 07:39:55;;;;;;;13.97;3.30;;;;;;;10.72;100.00;100858.63;5117574;28;19916;-85
2022/11/07 07:42:20;;;;;;;17.65;3.67;;;;;;;10.73;100.00;100855.84;5123210;28;20043;-84
2022/11/07 07:44:46;;;;;;;16.45;3.13;;;;;;;10.77;100.00;100867.06;5141776;27;20065;-85
2022/11/07 07:47:11;;;;;;;9.73;2.92;;;;;;;10.81;100.00;100873.88;5118122;27;20739;-84
2022/11/07 07:49:36;;;;;;;17.10;3.72;;;;;;;10.83;100.00;100884.38;5119568;28;20038;-83
2022/11/07 07:52:02;;;;;;;19.35;3.65;;;;;;;10.83;100.00;100876.41;5131333;27;20044;-83
2022/11/07 07:54:28;;;;;;;17.08;4.13;;;;;;;10.86;100.00;100879.66;5100111;28;20078;-84
2022/11/07 07:56:54;;;;;;;15.90;3.47;;;;;;;10.89;100.00;100881.22;5105925;28;20043;-84
2022/11/07 07:59:19;;;;;;;17.60;3.70;;;;;;;10.96;100.00;100887.78;5107097;28;20031;-83
2022/11/07 08:01:45;;;;;;;15.85;3.25;;;;;;;10.97;100.00;100876.16;5113088;28;20044;-83
2022/11/07 08:04:10;;;;;;;16.85;3.65;;;;;;;11.03;100.00;100870.38;5110928;28;20039;-84
2022/11/07 08:06:36;;;;;;;18.77;3.60;;;;;;;11.08;100.00;100876.19;5101133;28;20844;-83
2022/11/07 08:09:02;;;;;;;17.83;3.53;;;;;;;11.09;100.00;100869.03;5106900;28;20063;-83
2022/11/07 08:11:28;;;;;;;15.20;3.33;;;;;;;11.17;100.00;100884.41;5094668;28;20028;-83
2022/11/07 08:13:54;;;;;;;14.10;3.50;;;;;;;11.18;100.00;100880.78;5118222;28;20019;-83
2022/11/07 08:16:19;;;;;;;14.07;3.28;;;;;;;11.25;100.00;100877.50;5116441;28;20047;-83
2022/11/07 08:18:44;;;;;;;15.55;3.58;;;;;;;11.30;100.00;100880.63;5115009;28;20043;-83
2022/11/07 08:21:09;;;;;;;13.70;3.55;;;;;;;11.37;100.00;100878.34;5105261;28;20047;-83
2022/11/07 08:23:37;;;;;;;14.10;3.75;;;;;;;11.46;99.56;100885.59;5119903;28;20036;-83
2022/11/07 08:26:03;;;;;;;17.65;3.55;;;;;;;11.48;99.28;100881.00;5121866;27;20137;-83
2022/11/07 08:28:32;;;;;;;14.90;3.10;;;;;;;11.51;99.47;100882.56;5117809;27;20015;-84
2022/11/07 08:31:03;;;;;;;13.50;3.13;;;;;;;11.51;99.04;100895.00;5109879;28;20056;-84
2022/11/07 08:33:29;;;;;;;12.82;3.00;;;;;;;11.51;99.03;100887.03;5116948;28;20093;-84
2022/11/07 08:36:02;;;;;;;15.95;3.38;;;;;;;11.48;99.17;100891.63;5122928;28;20004;-84
2022/11/07 08:38:32;;;;;;;14.52;3.15;;;;;;;11.47;98.79;100895.28;5122290;27;20035;-83
2022/11/07 08:40:57;;;;;;;16.13;2.97;;;;;;;11.50;99.72;100896.00;5123897;28;20059;-84
2022/11/07 08:43:26;;;;;;;15.02;3.60;;;;;;;11.54;99.62;100903.63;5097425;28;20035;-84
2022/11/07 08:45:53;;;;;;;13.85;3.22;;;;;;;11.58;99.45;100909.53;5108843;28;20036;-84
2022/11/07 08:48:19;;;;;;;12.48;3.20;;;;;;;11.60;99.27;100897.78;5114285;28;20028;-83
2022/11/07 08:50:44;;;;;;;15.00;3.13;;;;;;;11.65;99.13;100905.41;5117086;28;20486;-84
2022/11/07 08:53:11;;;;;;;13.35;3.20;;;;;;;11.70;99.03;100918.34;5112107;28;20045;-84
2022/11/07 08:55:36;;;;;;;13.13;2.67;;;;;;;11.74;98.65;100920.66;5111023;28;20450;-84
2022/11/07 08:58:04;;;;;;;15.38;3.05;;;;;;;11.77;98.63;100924.84;5113734;28;20055;-84
2022/11/07 09:00:30;;;;;;;12.40;3.07;;;;;;;11.79;98.47;100917.59;5120495;28;20032;-83
2022/11/07 09:03:07;;;;;;;16.20;3.10;;;;;;;11.83;98.42;100930.53;5122070;28;20031;-84
2022/11/07 09:05:37;;;;;;;14.15;3.10;;;;;;;11.85;98.36;100936.56;5116431;28;20028;-84
2022/11/07 09:08:03;;;;;;;14.73;3.33;;;;;;;11.88;98.11;100930.16;5118046;28;20036;-83
2022/11/07 09:10:28;;;;;;;11.50;2.88;;;;;;;11.90;97.70;100935.38;5101586;28;20032;-82
2022/11/07 09:12:53;;;;;;;15.60;3.13;;;;;;;11.91;97.77;100940.59;5096820;28;20016;-85
2022/11/07 09:15:19;;;;;;;16.58;3.35;;;;;;;11.94;98.15;100942.16;5108483;28;20044;-89
2022/11/07 09:17:49;;;;;;;14.85;3.55;;;;;;;11.94;97.80;100936.81;5122749;27;20025;-91
2022/11/07 09:20:18;;;;;;;15.43;3.15;;;;;;;11.91;97.69;100926.44;5119472;27;20354;-87
2022/11/07 09:22:44;;;;;;;9.63;2.70;;;;;;;11.94;97.82;100934.16;5103214;28;20035;-84
2022/11/07 09:25:09;;;;;;;12.63;3.15;;;;;;;11.95;97.64;100942.03;5119843;28;20016;-83
2022/11/07 09:27:35;;;;;;;17.35;3.67;;;;;;;12.00;97.58;100947.00;5123550;28;20434;-83
2022/11/07 09:30:01;;;;;;;16.13;3.15;;;;;;;12.03;97.32;100952.06;5121795;28;20039;-83
2022/11/07 09:32:27;;;;;;;10.32;2.92;;;;;;;11.99;97.10;100926.66;5118220;28;20023;-84
2022/11/07 09:34:52;;;;;;;12.88;3.35;;;;;;;12.02;97.17;100945.91;5119820;28;20035;-85
2022/11/07 09:37:20;;;;;;;12.93;3.28;;;;;;;12.03;96.82;100942.25;5105817;28;20031;-84
2022/11/07 09:39:46;;;;;;;15.52;3.67;;;;;;;12.05;96.52;100946.63;5086155;28;20024;-84
2022/11/07 09:42:41;;;;;;;12.32;2.75;;;;;;;12.08;96.95;100938.38;5111455;28;20035;-83
2022/11/07 09:45:11;;;;;;;13.80;3.35;;;;;;;12.15;96.26;100939.56;5115671;28;20053;-84
2022/11/07 09:47:44;;;;;;;13.80;3.13;;;;;;;12.16;96.27;100942.13;5113685;28;20024;-85
2022/11/07 09:50:14;;;;;;;11.07;3.03;;;;;;;12.20;96.10;100951.53;5095386;28;20043;-84
2022/11/07 09:52:54;;;;;;;13.48;3.35;;;;;;;12.24;96.15;100956.59;5113454;28;20019;-83
2022/11/07 09:55:26;;;;;;;11.75;3.30;;;;;;;12.24;95.51;100944.16;5110100;28;20057;-83
2022/11/07 09:57:59;;;;;;;15.25;3.03;;;;;;;12.27;95.89;100954.53;5108090;28;20534;-82
2022/11/07 10:00:27;;;;;;;13.65;3.00;;;;;;;12.26;95.45;100944.00;5106512;28;20061;-83
2022/11/07 10:02:58;;;;;;;17.65;4.40;;;;;;;12.33;95.72;100963.84;5101569;28;20063;-83
2022/11/07 10:05:49;;;;;;;12.27;2.90;;;;;;;12.35;95.77;100968.06;5122966;28;20023;-84
2022/11/07 10:08:39;;;;;;;12.15;2.90;;;;;;;12.39;96.13;100968.69;5123915;27;20031;-83
2022/11/07 10:11:20;;;;;;;13.38;2.72;;;;;;;12.39;96.15;100960.69;5124381;27;20020;-82
2022/11/07 10:13:50;;;;;;;15.23;3.45;;;;;;;12.42;94.80;100956.91;5111848;28;20030;-84
2022/11/07 10:16:27;;;;;;;13.70;3.03;;;;;;;12.43;94.10;100958.63;5125900;28;20043;-84
2022/11/07 10:19:08;;;;;;;13.63;2.92;;;;;;;12.44;95.10;100965.63;5119021;28;20024;-84
2022/11/07 10:21:52;;;;;;;18.15;3.20;;;;;;;12.50;95.22;100970.44;5115560;27;20020;-84
2022/11/07 10:25:02;;;;;;;16.02;3.47;;;;;;;12.56;94.71;100975.28;5118256;27;20362;-83
2022/11/07 10:27:28;;;;;;;12.30;3.10;;;;;;;12.60;94.08;100971.38;5081806;28;20035;-83
2022/11/07 10:29:55;;;;;;;16.30;3.33;;;;;;;12.62;93.87;100974.75;5120397;27;20024;-83
2022/11/07 10:32:55;;;;;;;17.45;3.35;;;;;;;12.69;93.16;100970.63;5120261;27;20020;-84
2022/11/07 10:35:29;;;;;;;13.73;3.08;;;;;;;12.72;92.62;100973.03;5111686;28;20036;-84
2022/11/07 10:37:59;;;;;;;13.55;3.67;;;;;;;12.75;92.44;100979.91;5129503;27;20035;-84
2022/11/07 10:40:40;;;;;;;9.70;2.95;;;;;;;12.76;91.65;100970.94;5121700;28;20046;-84
2022/11/07 10:43:11;;;;;;;13.57;3.00;;;;;;;12.84;92.26;100984.47;5111059;28;20034;-83
2022/11/07 10:45:38;;;;;;;12.50;2.90;;;;;;;12.89;91.98;100989.41;5106401;28;20032;-84
2022/11/07 10:48:04;;;;;;;18.05;3.35;;;;;;;12.95;90.73;100991.56;5117307;28;20036;-84
2022/11/07 10:50:30;;;;;;;14.77;3.60;;;;;;;12.96;90.54;100980.78;5122835;28;20428;-83
2022/11/07 10:52:59;;;;;;;15.73;3.70;;;;;;;13.01;90.97;100991.06;5102066;28;20039;-83
2022/11/07 10:55:26;;;;;;;15.85;3.60;;;;;;;13.05;91.13;100991.63;5115883;28;20019;-83
2022/11/07 10:57:58;;;;;;;12.40;3.22;;;;;;;13.10;90.55;101000.91;5098933;28;20023;-84
2022/11/07 11:00:24;;;;;;;15.73;3.47;;;;;;;13.13;90.09;101003.34;5093654;28;20032;-84
2022/11/07 11:02:50;;;;;;;15.00;3.40;;;;;;;13.14;89.64;100990.88;5097952;28;20048;-83
2022/11/07 11:05:38;;;;;;;11.70;3.10;;;;;;;13.14;89.43;101002.38;5113865;28;20019;-82
2022/11/07 11:08:30;;;;;;;10.00;2.87;;;;;;;13.17;89.63;101001.25;5110368;28;20486;-83
2022/11/07 11:10:59;;;;;;;18.63;3.45;;;;;;;13.17;88.92;100998.56;5109694;28;20285;-84
2022/11/07 11:13:29;;;;;;;16.65;3.65;;;;;;;13.19;88.51;100995.78;5102207;28;20073;-83
2022/11/07 11:15:59;;;;;;;15.68;3.35;;;;;;;13.19;89.12;100987.78;5120354;28;20031;-83
2022/11/07 11:18:24;;;;;;;14.75;3.55;;;;;;;13.22;88.66;100985.72;5120294;28;20022;-83
2022/11/07 11:21:01;;;;;;;14.07;3.47;;;;;;;13.26;89.27;100986.31;5120014;28;20377;-83
2022/11/07 11:23:34;;;;;;;14.40;2.88;;;;;;;13.26;87.74;100984.47;5123751;28;20047;-84
2022/11/07 11:26:31;;;;;;;12.32;3.08;;;;;;;13.30;89.03;100982.38;5104527;28;20072;-83
2022/11/07 11:28:59;;;;;;;13.18;3.28;;;;;;;13.29;87.92;100970.88;5110052;28;20130;-84
2022/11/07 11:31:35;;;;;;;13.73;3.30;;;;;;;13.32;87.83;100973.31;5116557;28;20063;-84